createdAt,value
2018-03-24T00:01:04.332Z,35.78
2018-03-24T00:03:31.040Z,35.25
2018-03-24T00:05:57.719Z,34.20
2018-03-24T00:08:24.408Z,34.97
2018-03-24T00:10:51.089Z,30.42
2018-03-24T00:13:17.770Z,29.60
2018-03-24T00:15:44.504Z,29.83
2018-03-24T00:18:11.189Z,36.20
2018-03-24T00:20:37.882Z,34.30
2018-03-24T00:23:04.565Z,33.97
2018-03-24T00:25:31.273Z,32.95
2018-03-24T00:27:57.980Z,34.63
2018-03-24T00:30:24.663Z,29.85
2018-03-24T00:32:51.346Z,33.70
2018-03-24T00:35:18.047Z,30.77
2018-03-24T00:37:44.733Z,33.10
2018-03-24T00:40:11.437Z,33.92
2018-03-24T00:42:38.120Z,34.90
2018-03-24T00:45:04.796Z,33.60
2018-03-24T00:47:31.476Z,40.38
2018-03-24T00:49:58.184Z,31.70
2018-03-24T00:52:24.880Z,37.00
2018-03-24T00:54:51.552Z,33.72
2018-03-24T00:57:18.253Z,32.80
2018-03-24T00:59:44.932Z,32.33
2018-03-24T01:02:11.604Z,34.95
2018-03-24T01:04:38.284Z,36.08
2018-03-24T01:07:04.962Z,33.75
2018-03-24T01:09:31.656Z,35.47
2018-03-24T01:11:58.339Z,38.10
2018-03-24T01:14:25.050Z,35.92
2018-03-24T01:16:51.726Z,38.33
2018-03-24T01:19:18.409Z,36.75
2018-03-24T01:21:45.092Z,40.05
2018-03-24T01:24:11.774Z,37.08
2018-03-24T01:26:38.489Z,33.60
2018-03-24T01:29:05.208Z,35.42
2018-03-24T01:31:31.893Z,35.00
2018-03-24T01:33:58.573Z,39.22
2018-03-24T01:36:25.260Z,35.80
2018-03-24T01:38:51.960Z,36.90
2018-03-24T01:41:18.653Z,33.15
2018-03-24T01:43:45.344Z,35.33
2018-03-24T01:46:12.025Z,40.03
2018-03-24T01:48:38.738Z,34.53
2018-03-24T01:51:05.432Z,35.90
2018-03-24T01:53:37.948Z,36.83
2018-03-24T01:56:04.645Z,33.78
2018-03-24T01:58:31.336Z,35.05
2018-03-24T02:00:58.012Z,36.53
2018-03-24T02:03:24.689Z,33.67
2018-03-24T02:05:51.402Z,38.75
2018-03-24T02:08:18.104Z,38.13
2018-03-24T02:10:44.794Z,35.35
2018-03-24T02:13:11.482Z,36.30
2018-03-24T02:15:38.209Z,33.55
2018-03-24T02:18:04.944Z,36.90
2018-03-24T02:20:31.621Z,36.72
2018-03-24T02:22:58.305Z,36.80
2018-03-24T02:25:24.990Z,41.28
2018-03-24T02:27:51.679Z,36.78
2018-03-24T02:30:18.370Z,34.25
2018-03-24T02:32:45.048Z,39.00
2018-03-24T02:35:11.770Z,39.80
2018-03-24T02:37:38.464Z,42.35
2018-03-24T02:40:05.149Z,42.42
2018-03-24T02:42:31.845Z,40.63
2018-03-24T02:44:58.537Z,42.92
2018-03-24T02:47:25.223Z,39.20
2018-03-24T02:49:51.900Z,41.97
2018-03-24T02:52:18.602Z,38.47
2018-03-24T02:54:45.300Z,39.78
2018-03-24T02:57:11.976Z,43.45
2018-03-24T02:59:38.665Z,40.05
2018-03-24T03:02:05.356Z,41.10
2018-03-24T03:04:32.048Z,38.33
2018-03-24T03:06:58.774Z,42.75
2018-03-24T03:09:25.452Z,40.10
2018-03-24T03:11:52.140Z,46.90
2018-03-24T03:14:18.816Z,38.65
2018-03-24T03:16:45.493Z,40.97
2018-03-24T03:19:12.334Z,38.83
2018-03-24T03:21:44.726Z,40.63
2018-03-24T03:24:11.436Z,44.03
2018-03-24T03:26:38.133Z,40.90
2018-03-24T03:29:04.840Z,42.60
2018-03-24T03:31:31.571Z,42.20
2018-03-24T03:33:58.260Z,41.85
2018-03-24T03:36:24.969Z,43.83
2018-03-24T03:38:51.659Z,46.97
2018-03-24T03:41:18.331Z,41.13
2018-03-24T03:43:45.009Z,49.15
2018-03-24T03:46:11.693Z,51.70
2018-03-24T03:48:38.384Z,45.92
2018-03-24T03:51:05.078Z,47.25
2018-03-24T03:53:31.773Z,44.08
2018-03-24T03:55:58.456Z,44.50
2018-03-24T03:58:25.164Z,43.10
2018-03-24T04:00:51.854Z,48.50
2018-03-24T04:03:18.560Z,49.20
2018-03-24T04:05:45.256Z,47.15
2018-03-24T04:08:11.941Z,45.78
2018-03-24T04:10:38.653Z,53.33
2018-03-24T04:13:05.332Z,43.38
2018-03-24T04:15:32.017Z,46.80
2018-03-24T04:17:58.699Z,46.72
2018-03-24T04:20:25.390Z,48.58
2018-03-24T04:22:52.210Z,42.47
2018-03-24T04:25:18.893Z,46.63
2018-03-24T04:27:45.607Z,54.38
2018-03-24T04:30:12.356Z,45.05
2018-03-24T04:32:39.048Z,48.17
2018-03-24T04:35:05.780Z,45.63
2018-03-24T04:37:32.465Z,47.58
2018-03-24T04:39:59.146Z,48.53
2018-03-24T04:42:25.824Z,54.80
2018-03-24T04:44:52.509Z,46.10
2018-03-24T04:47:19.221Z,50.75
2018-03-24T04:49:45.912Z,52.08
2018-03-24T04:52:12.591Z,49.30
2018-03-24T04:54:39.276Z,51.40
2018-03-24T04:57:05.952Z,51.53
2018-03-24T04:59:32.716Z,47.50
2018-03-24T05:01:59.404Z,52.42
2018-03-24T05:04:26.083Z,46.80
2018-03-24T05:06:52.774Z,45.78
2018-03-24T05:09:19.457Z,52.40
2018-03-24T05:11:46.142Z,53.55
2018-03-24T05:14:12.880Z,48.95
2018-03-24T05:16:39.596Z,52.90
2018-03-24T05:19:06.276Z,50.53
2018-03-24T05:21:32.956Z,46.58
2018-03-24T05:23:59.662Z,50.38
2018-03-24T05:26:26.364Z,45.22
2018-03-24T05:28:53.047Z,48.70
2018-03-24T05:31:19.744Z,51.22
2018-03-24T05:33:46.421Z,51.10
2018-03-24T05:36:13.124Z,56.50
2018-03-24T05:38:39.833Z,52.65
2018-03-24T05:41:06.526Z,50.85
2018-03-24T05:43:33.208Z,50.22
2018-03-24T05:45:59.884Z,50.75
2018-03-24T05:48:26.597Z,52.00
2018-03-24T05:50:53.285Z,50.92
2018-03-24T05:53:20.007Z,50.40
2018-03-24T05:55:46.712Z,52.72
2018-03-24T05:58:13.420Z,48.58
2018-03-24T06:00:40.114Z,48.90
2018-03-24T06:03:06.801Z,53.13
2018-03-24T06:05:33.480Z,49.22
2018-03-24T06:08:00.168Z,46.10
2018-03-24T06:10:26.881Z,52.42
2018-03-24T06:12:53.568Z,50.22
2018-03-24T06:15:20.357Z,49.45
2018-03-24T06:17:47.029Z,48.58
2018-03-24T06:20:13.727Z,46.90
2018-03-24T06:22:40.449Z,47.90
2018-03-24T06:25:07.136Z,46.92
2018-03-24T06:27:33.837Z,48.03
2018-03-24T06:30:00.525Z,46.72
2018-03-24T06:32:27.212Z,52.13
2018-03-24T06:34:53.918Z,49.67
2018-03-24T06:37:22.471Z,50.40
2018-03-24T06:39:49.162Z,50.75
2018-03-24T06:42:15.843Z,49.88
2018-03-24T06:44:42.566Z,48.22
2018-03-24T06:47:09.258Z,47.42
2018-03-24T06:49:35.950Z,46.58
2018-03-24T06:52:02.666Z,46.95
2018-03-24T06:54:29.344Z,41.97
2018-03-24T06:56:56.058Z,45.33
2018-03-24T06:59:22.756Z,45.75
2018-03-24T07:01:49.432Z,46.20
2018-03-24T07:04:16.118Z,45.17
2018-03-24T07:06:42.805Z,46.35
2018-03-24T07:09:09.504Z,48.72
2018-03-24T07:11:36.190Z,47.45
2018-03-24T07:14:02.892Z,47.28
2018-03-24T07:16:29.601Z,43.83
2018-03-24T07:18:56.284Z,47.67
2018-03-24T07:21:22.968Z,42.40
2018-03-24T07:23:49.723Z,47.03
2018-03-24T07:26:16.405Z,44.80
2018-03-24T07:28:43.669Z,41.37
2018-03-24T07:31:10.354Z,44.60
2018-03-24T07:33:37.029Z,42.92
2018-03-24T07:36:03.725Z,50.28
2018-03-24T07:38:30.408Z,46.97
2018-03-24T07:40:57.121Z,46.28
2018-03-24T07:43:23.818Z,42.30
2018-03-24T07:45:50.509Z,42.97
2018-03-24T07:48:17.223Z,45.30
2018-03-24T07:50:43.901Z,43.17
2018-03-24T07:53:10.604Z,42.08
2018-03-24T07:55:37.280Z,46.63
2018-03-24T07:58:03.987Z,45.28
2018-03-24T08:00:30.681Z,44.92
2018-03-24T08:02:57.373Z,44.08
2018-03-24T08:05:24.049Z,44.13
2018-03-24T08:07:50.858Z,46.92
2018-03-24T08:10:17.540Z,41.65
2018-03-24T08:12:44.649Z,43.95
2018-03-24T08:15:11.372Z,45.47
2018-03-24T08:17:38.067Z,45.80
2018-03-24T08:20:04.803Z,42.60
2018-03-24T08:22:31.486Z,45.72
2018-03-24T08:24:58.195Z,47.70
2018-03-24T08:27:24.876Z,42.92
2018-03-24T08:29:51.584Z,47.35
2018-03-24T08:32:18.280Z,45.60
2018-03-24T08:34:44.995Z,44.35
2018-03-24T08:37:11.674Z,44.28
2018-03-24T08:39:38.402Z,45.20
2018-03-24T08:42:05.466Z,43.17
2018-03-24T08:44:32.293Z,45.60
2018-03-24T08:46:58.996Z,51.63
2018-03-24T08:49:25.692Z,43.38
2018-03-24T08:51:52.408Z,44.20
2018-03-24T08:54:19.199Z,45.42
2018-03-24T08:56:47.084Z,48.05
2018-03-24T08:59:13.897Z,46.53
2018-03-24T09:01:40.616Z,47.83
2018-03-24T09:04:07.347Z,44.33
2018-03-24T09:06:34.037Z,48.60
2018-03-24T09:09:00.750Z,46.53
2018-03-24T09:11:27.469Z,42.10
2018-03-24T09:13:54.192Z,43.65
2018-03-24T09:16:20.958Z,48.45
2018-03-24T09:18:47.776Z,47.55
2018-03-24T09:21:14.485Z,50.63
2018-03-24T09:23:41.170Z,46.58
2018-03-24T09:26:07.862Z,46.67
2018-03-24T09:28:34.561Z,46.33
2018-03-24T09:31:01.277Z,49.05
2018-03-24T09:33:27.978Z,47.22
2018-03-24T09:35:54.659Z,46.50
2018-03-24T09:38:21.433Z,47.75
2018-03-24T09:40:48.157Z,46.03
2018-03-24T09:43:14.869Z,48.22
2018-03-24T09:45:41.562Z,45.47
2018-03-24T09:48:08.250Z,40.03
2018-03-24T09:50:34.950Z,49.00
2018-03-24T09:53:01.700Z,61.45
2018-03-24T09:55:28.416Z,44.75
2018-03-24T09:57:55.115Z,41.78
2018-03-24T10:00:21.863Z,48.58
2018-03-24T10:02:48.556Z,43.97
2018-03-24T10:05:15.302Z,41.97
2018-03-24T10:07:41.988Z,38.17
2018-03-24T10:10:08.683Z,37.90
2018-03-24T10:12:35.429Z,37.13
2018-03-24T10:15:02.121Z,39.10
2018-03-24T10:17:28.899Z,38.00
2018-03-24T10:19:55.592Z,40.20
2018-03-24T10:22:37.958Z,33.97
2018-03-24T10:25:04.666Z,33.40
2018-03-24T10:27:32.372Z,32.33
2018-03-24T10:29:59.085Z,31.40
2018-03-24T10:32:25.782Z,32.50
2018-03-24T10:35:06.982Z,24.00
2018-03-24T10:37:39.523Z,30.30
2018-03-24T10:40:06.242Z,30.37
2018-03-24T10:42:32.929Z,32.07
2018-03-24T10:44:59.653Z,32.93
2018-03-24T10:47:26.364Z,33.03
2018-03-24T10:49:53.055Z,29.87
2018-03-24T10:52:19.801Z,26.03
2018-03-24T10:54:46.501Z,27.67
2018-03-24T10:57:13.199Z,27.80
2018-03-24T10:59:39.887Z,24.63
2018-03-24T11:02:06.613Z,27.23
2018-03-24T11:04:33.335Z,26.70
2018-03-24T11:07:00.021Z,24.07
2018-03-24T11:09:26.713Z,21.80
2018-03-24T11:11:53.404Z,23.60
2018-03-24T11:14:20.124Z,22.83
2018-03-24T11:16:46.814Z,23.33
2018-03-24T11:19:13.507Z,23.73
2018-03-24T11:21:40.210Z,27.95
2018-03-24T11:24:06.981Z,25.30
2018-03-24T11:26:33.718Z,22.13
2018-03-24T11:29:00.427Z,18.60
2018-03-24T11:31:27.138Z,18.27
2018-03-24T11:33:53.849Z,20.00
2018-03-24T11:36:20.548Z,19.30
2018-03-24T11:38:47.293Z,16.00
2018-03-24T11:41:13.960Z,16.12
2018-03-24T11:43:40.660Z,15.07
2018-03-24T11:46:07.399Z,14.50
2018-03-24T11:48:34.101Z,13.98
2018-03-24T11:51:00.822Z,15.05
2018-03-24T11:53:33.463Z,17.77
2018-03-24T11:56:00.301Z,16.87
2018-03-24T11:58:27.021Z,18.33
2018-03-24T12:00:53.772Z,23.90
2018-03-24T12:03:20.528Z,25.00
2018-03-24T12:05:47.276Z,29.10
2018-03-24T12:08:14.033Z,23.42
2018-03-24T12:10:40.840Z,24.00
2018-03-24T12:13:07.700Z,22.90
2018-03-24T12:15:34.450Z,20.15
2018-03-24T12:18:01.283Z,19.17
2018-03-24T12:20:28.104Z,19.85
2018-03-24T12:22:55.055Z,17.23
2018-03-24T12:25:21.896Z,19.42
2018-03-24T12:27:48.712Z,19.35
2018-03-24T12:30:15.662Z,15.88
2018-03-24T12:32:42.395Z,19.00
2018-03-24T12:35:09.197Z,19.92
2018-03-24T12:37:35.965Z,17.95
2018-03-24T12:40:02.765Z,20.40
2018-03-24T12:42:29.577Z,15.60
2018-03-24T12:44:56.328Z,16.77
2018-03-24T12:47:23.090Z,15.68
2018-03-24T12:49:49.840Z,16.25
2018-03-24T12:52:16.619Z,16.45
2018-03-24T12:54:43.360Z,18.27
2018-03-24T12:57:10.171Z,15.77
2018-03-24T12:59:36.888Z,17.40
2018-03-24T13:02:03.584Z,18.65
2018-03-24T13:04:30.321Z,18.92
2018-03-24T13:06:57.035Z,19.00
2018-03-24T13:09:23.730Z,20.75
2018-03-24T13:11:50.436Z,23.58
2018-03-24T13:14:17.117Z,21.00
2018-03-24T13:16:43.814Z,18.70
2018-03-24T13:19:10.563Z,21.58
2018-03-24T13:21:37.216Z,20.50
2018-03-24T13:24:04.741Z,17.80
2018-03-24T13:26:31.433Z,19.00
2018-03-24T13:28:58.152Z,20.75
2018-03-24T13:31:24.869Z,20.40
2018-03-24T13:33:51.560Z,18.48
2018-03-24T13:36:18.245Z,17.50
2018-03-24T13:38:44.959Z,15.32
2018-03-24T13:41:11.711Z,16.67
2018-03-24T13:43:38.393Z,16.90
2018-03-24T13:46:05.077Z,17.20
2018-03-24T13:48:31.780Z,17.55
2018-03-24T13:50:58.478Z,17.55
2018-03-24T13:53:25.244Z,19.37
2018-03-24T13:55:51.945Z,19.58
2018-03-24T13:58:18.628Z,17.80
2018-03-24T14:00:45.322Z,18.52
2018-03-24T14:03:12.978Z,17.12
2018-03-24T14:05:39.716Z,16.92
2018-03-24T14:08:06.429Z,18.65
2018-03-24T14:10:33.133Z,19.60
2018-03-24T14:12:59.924Z,17.80
2018-03-24T14:15:26.784Z,16.83
2018-03-24T14:17:53.589Z,18.23
2018-03-24T14:20:20.354Z,21.62
2018-03-24T14:22:47.114Z,18.27
2018-03-24T14:25:13.924Z,20.20
2018-03-24T14:27:40.682Z,19.42
2018-03-24T14:30:07.515Z,19.08
2018-03-24T14:32:34.259Z,21.00
2018-03-24T14:35:01.027Z,21.42
2018-03-24T14:37:27.842Z,24.30
2018-03-24T14:39:54.593Z,23.30
2018-03-24T14:42:21.370Z,22.33
2018-03-24T14:44:48.227Z,22.90
2018-03-24T14:47:14.967Z,20.98
2018-03-24T14:49:41.762Z,23.95
2018-03-24T14:52:08.566Z,17.52
2018-03-24T14:54:35.298Z,18.55
2018-03-24T14:57:02.084Z,21.08
2018-03-24T14:59:28.809Z,20.17
2018-03-24T15:01:55.687Z,20.35
2018-03-24T15:04:22.538Z,18.60
2018-03-24T15:06:49.372Z,18.52
2018-03-24T15:09:16.186Z,18.48
2018-03-24T15:11:42.994Z,19.08
2018-03-24T15:14:09.777Z,18.17
2018-03-24T15:16:36.509Z,20.90
2018-03-24T15:19:03.293Z,18.15
2018-03-24T15:21:30.027Z,18.45
2018-03-24T15:23:56.723Z,19.95
2018-03-24T15:26:23.417Z,19.70
2018-03-24T15:28:56.072Z,20.70
2018-03-24T15:31:28.593Z,21.42
2018-03-24T15:34:01.185Z,21.45
2018-03-24T15:36:33.670Z,19.27
2018-03-24T15:39:00.378Z,23.17
2018-03-24T15:41:27.095Z,18.30
2018-03-24T15:43:53.812Z,22.92
2018-03-24T15:46:20.499Z,20.20
2018-03-24T15:48:47.301Z,21.95
2018-03-24T15:51:14.143Z,19.50
2018-03-24T15:53:40.916Z,19.73
2018-03-24T15:56:07.818Z,21.23
2018-03-24T15:58:34.598Z,19.67
2018-03-24T16:01:01.356Z,20.75
2018-03-24T16:03:28.140Z,17.98
2018-03-24T16:05:54.949Z,22.70
2018-03-24T16:08:21.666Z,21.42
2018-03-24T16:10:48.401Z,22.67
2018-03-24T16:13:15.098Z,26.10
2018-03-24T16:15:41.851Z,23.15
2018-03-24T16:18:08.650Z,23.27
2018-03-24T16:20:35.409Z,20.58
2018-03-24T16:23:02.186Z,23.48
2018-03-24T16:25:29.127Z,22.73
2018-03-24T16:27:55.978Z,20.58
2018-03-24T16:30:22.745Z,21.67
2018-03-24T16:32:50.526Z,22.00
2018-03-24T16:35:17.357Z,21.35
2018-03-24T16:37:44.139Z,23.98
2018-03-24T16:40:10.824Z,24.25
2018-03-24T16:42:37.658Z,22.42
2018-03-24T16:45:04.419Z,20.52
2018-03-24T16:47:31.191Z,22.50
2018-03-24T16:49:58.025Z,22.90
2018-03-24T16:52:24.810Z,21.92
2018-03-24T16:54:51.561Z,24.42
2018-03-24T16:57:18.319Z,25.08
2018-03-24T16:59:45.098Z,23.60
2018-03-24T17:02:11.911Z,23.87
2018-03-24T17:04:38.654Z,23.62
2018-03-24T17:07:05.436Z,27.08
2018-03-24T17:09:32.172Z,24.23
2018-03-24T17:11:58.890Z,23.85
2018-03-24T17:14:25.722Z,25.33
2018-03-24T17:16:52.493Z,23.00
2018-03-24T17:19:19.246Z,19.10
2018-03-24T17:21:46.031Z,23.75
2018-03-24T17:24:12.798Z,23.17
2018-03-24T17:26:39.655Z,22.87
2018-03-24T17:29:06.396Z,21.20
2018-03-24T17:31:33.189Z,22.75
2018-03-24T17:33:59.934Z,24.98
2018-03-24T17:36:26.745Z,25.12
2018-03-24T17:38:53.533Z,21.98
2018-03-24T17:41:20.393Z,25.77
2018-03-24T17:43:47.118Z,23.83
2018-03-24T17:46:13.855Z,22.20
2018-03-24T17:48:40.786Z,22.08
2018-03-24T17:51:07.588Z,21.83
2018-03-24T17:53:34.364Z,21.67
2018-03-24T17:56:01.072Z,22.92
2018-03-24T17:58:27.759Z,23.48
2018-03-24T18:00:54.453Z,26.27
2018-03-24T18:03:21.270Z,24.90
2018-03-24T18:05:48.099Z,25.48
2018-03-24T18:08:14.827Z,24.05
2018-03-24T18:10:41.613Z,23.48
2018-03-24T18:13:08.456Z,23.00
2018-03-24T18:15:35.215Z,22.98
2018-03-24T18:18:02.023Z,26.90
2018-03-24T18:20:28.821Z,19.52
2018-03-24T18:22:55.599Z,22.98
2018-03-24T18:25:22.384Z,22.48
2018-03-24T18:27:49.165Z,25.85
2018-03-24T18:30:16.012Z,24.17
2018-03-24T18:32:42.739Z,23.05
2018-03-24T18:35:09.505Z,22.92
2018-03-24T18:37:36.285Z,23.30
2018-03-24T18:40:03.130Z,24.40
2018-03-24T18:42:29.920Z,20.83
2018-03-24T18:44:56.650Z,22.08
2018-03-24T18:47:23.454Z,24.23
2018-03-24T18:49:50.154Z,24.40
2018-03-24T18:52:16.839Z,22.33
2018-03-24T18:54:43.525Z,25.17
2018-03-24T18:57:10.249Z,22.70
2018-03-24T18:59:36.928Z,26.35
2018-03-24T19:02:03.617Z,22.25
2018-03-24T19:04:30.331Z,21.10
2018-03-24T19:06:57.033Z,27.65
2018-03-24T19:09:23.735Z,22.83
2018-03-24T19:11:50.475Z,22.60
2018-03-24T19:14:17.164Z,25.17
2018-03-24T19:16:43.894Z,24.90
2018-03-24T19:19:10.836Z,22.23
2018-03-24T19:21:37.626Z,24.63
2018-03-24T19:24:04.477Z,25.10
2018-03-24T19:26:31.232Z,24.48
2018-03-24T19:28:57.970Z,26.12
2018-03-24T19:31:24.744Z,22.48
2018-03-24T19:33:51.584Z,22.95
2018-03-24T19:36:18.335Z,24.27
2018-03-24T19:38:45.104Z,22.35
2018-03-24T19:41:11.891Z,22.92
2018-03-24T19:43:38.792Z,22.98
2018-03-24T19:46:05.510Z,24.15
2018-03-24T19:48:32.239Z,19.08
2018-03-24T19:50:58.975Z,21.05
2018-03-24T19:53:25.747Z,31.27
2018-03-24T19:55:52.462Z,23.77
2018-03-24T19:58:19.286Z,20.88
2018-03-24T20:00:45.987Z,23.15
2018-03-24T20:03:12.679Z,20.45
2018-03-24T20:05:39.398Z,21.20
2018-03-24T20:08:06.099Z,20.20
2018-03-24T20:10:32.794Z,19.67
2018-03-24T20:12:59.488Z,23.23
2018-03-24T20:15:26.229Z,22.20
2018-03-24T20:17:52.969Z,20.90
2018-03-24T20:20:19.658Z,21.30
2018-03-24T20:22:46.395Z,21.83
2018-03-24T20:25:13.109Z,21.45
2018-03-24T20:27:39.799Z,23.17
2018-03-24T20:30:06.485Z,22.65
2018-03-24T20:32:33.240Z,20.10
2018-03-24T20:34:59.948Z,17.62
2018-03-24T20:37:26.632Z,20.58
2018-03-24T20:39:53.466Z,21.55
2018-03-24T20:42:20.215Z,20.65
2018-03-24T20:44:46.887Z,20.60
2018-03-24T20:47:13.596Z,21.35
2018-03-24T20:49:40.287Z,21.20
2018-03-24T20:52:06.985Z,23.38
2018-03-24T20:54:33.677Z,21.87
2018-03-24T20:57:00.361Z,20.42
2018-03-24T20:59:27.119Z,22.42
2018-03-24T21:01:53.828Z,21.45
2018-03-24T21:04:20.513Z,19.12
2018-03-24T21:06:47.215Z,21.35
2018-03-24T21:09:13.889Z,22.70
2018-03-24T21:11:40.583Z,19.98
2018-03-24T21:14:07.278Z,23.55
2018-03-24T21:16:33.998Z,21.23
2018-03-24T21:19:00.682Z,21.00
2018-03-24T21:21:27.382Z,21.87
2018-03-24T21:23:54.082Z,25.23
2018-03-24T21:26:20.775Z,21.87
2018-03-24T21:28:47.471Z,20.90
2018-03-24T21:31:14.194Z,19.12
2018-03-24T21:33:40.905Z,23.52
2018-03-24T21:36:07.604Z,22.10
2018-03-24T21:38:34.325Z,26.20
2018-03-24T21:41:01.034Z,21.85
2018-03-24T21:43:27.845Z,23.45
2018-03-24T21:45:54.732Z,22.75
2018-03-24T21:48:21.416Z,23.05
2018-03-24T21:50:48.156Z,23.05
2018-03-24T21:53:14.841Z,24.77
2018-03-24T21:55:41.560Z,22.37
2018-03-24T21:58:08.241Z,24.35
2018-03-24T22:00:35.038Z,23.17
2018-03-24T22:03:01.728Z,21.35
2018-03-24T22:05:28.421Z,20.35
2018-03-24T22:07:55.124Z,19.70
2018-03-24T22:10:21.796Z,24.30
2018-03-24T22:12:48.504Z,18.95
2018-03-24T22:15:15.262Z,21.27
2018-03-24T22:17:41.948Z,21.90
2018-03-24T22:20:08.781Z,20.60
2018-03-24T22:22:35.472Z,22.75
2018-03-24T22:25:02.171Z,20.70
2018-03-24T22:27:28.861Z,22.95
2018-03-24T22:29:56.378Z,25.15
2018-03-24T22:32:23.076Z,21.77
2018-03-24T22:34:49.765Z,22.05
2018-03-24T22:37:16.450Z,23.62
2018-03-24T22:39:43.161Z,23.70
2018-03-24T22:42:09.893Z,25.30
2018-03-24T22:44:36.591Z,27.25
2018-03-24T22:47:03.288Z,23.02
2018-03-24T22:49:30.007Z,19.35
2018-03-24T22:51:56.699Z,25.05
2018-03-24T22:54:24.331Z,24.90
2018-03-24T22:56:51.057Z,22.00
2018-03-24T22:59:17.807Z,23.33
2018-03-24T23:01:44.587Z,24.85
2018-03-24T23:04:11.340Z,23.17
2018-03-24T23:06:38.200Z,23.55
2018-03-24T23:09:05.044Z,22.42
2018-03-24T23:11:31.840Z,26.75
2018-03-24T23:13:58.663Z,25.45
2018-03-24T23:16:25.407Z,24.48
2018-03-24T23:18:52.242Z,25.42
2018-03-24T23:21:19.174Z,25.02
2018-03-24T23:23:45.873Z,24.58
2018-03-24T23:26:12.703Z,25.35
2018-03-24T23:28:39.436Z,27.23
2018-03-24T23:31:06.244Z,29.70
2018-03-24T23:33:32.959Z,25.52
2018-03-24T23:35:59.824Z,26.25
2018-03-24T23:38:26.620Z,23.00
2018-03-24T23:40:53.370Z,27.20
2018-03-24T23:43:20.104Z,26.50
2018-03-24T23:45:46.877Z,27.42
2018-03-24T23:48:13.665Z,26.48
2018-03-24T23:50:40.475Z,26.80
2018-03-24T23:53:07.302Z,29.33
2018-03-24T23:55:34.043Z,31.02
2018-03-24T23:58:00.815Z,26.65
